Time;durP1;ratioP1;P1;durP2;ratioP2;P2;SDS_P1;SDS_P2;PMS_P1;PMS_P2;Temp;Humidity;BMP_temperature;BMP_pressure;BME280_temperature;BME280_humidity;BME280_pressure;Samples;Min_cycle;Max_cycle;Signal;HPM_P1;HPM_P2
2021/06/06 00:00:26;;;;;;;11.20;10.10;;;16.90;94.90;;;;;;5026958;28;20181;-91
2021/06/06 00:02:52;;;;;;;11.90;10.73;;;16.90;94.60;;;;;;5044287;28;20512;-92
2021/06/06 00:05:19;;;;;;;11.37;10.27;;;16.90;95.50;;;;;;5043818;28;20667;-92
2021/06/06 00:07:45;;;;;;;11.73;10.63;;;16.80;95.20;;;;;;5043766;28;20204;-91
2021/06/06 00:10:12;;;;;;;12.67;11.37;;;16.80;96.80;;;;;;5043302;28;20243;-92
2021/06/06 00:12:38;;;;;;;11.23;10.10;;;16.80;95.20;;;;;;5043722;28;20195;-91
2021/06/06 00:15:16;;;;;;;12.57;11.07;;;16.80;95.40;;;;;;5042965;28;20174;-91
2021/06/06 00:17:42;;;;;;;12.63;11.27;;;16.80;96.60;;;;;;5042957;28;20697;-91
2021/06/06 00:20:10;;;;;;;12.17;11.03;;;16.80;95.60;;;;;;5025551;28;20198;-91
2021/06/06 00:22:37;;;;;;;12.47;11.27;;;16.70;95.20;;;;;;5023852;28;20209;-91
2021/06/06 00:25:06;;;;;;;12.73;11.43;;;16.80;95.80;;;;;;5041556;28;20183;-92
2021/06/06 00:27:32;;;;;;;13.60;11.87;;;16.80;95.20;;;;;;5008475;28;20205;-91
2021/06/06 00:29:58;;;;;;;12.57;11.37;;;16.60;96.70;;;;;;5009741;28;20205;-92
2021/06/06 00:32:24;;;;;;;13.53;12.00;;;16.80;96.60;;;;;;5023444;28;20592;-91
2021/06/06 00:34:49;;;;;;;12.87;11.63;;;16.80;94.70;;;;;;5040441;28;20188;-90
2021/06/06 00:37:15;;;;;;;12.17;10.93;;;16.80;95.20;;;;;;5041778;28;20472;-91
2021/06/06 00:39:40;;;;;;;12.47;11.17;;;16.90;95.70;;;;;;5039655;28;20186;-92
2021/06/06 00:42:07;;;;;;;13.23;11.93;;;16.80;95.10;;;;;;5024011;28;20228;-92
2021/06/06 00:44:32;;;;;;;13.47;12.13;;;16.70;96.00;;;;;;5042597;28;20211;-92
2021/06/06 00:46:58;;;;;;;14.73;13.13;;;16.70;95.90;;;;;;5042484;28;20206;-92
2021/06/06 00:49:24;;;;;;;13.50;12.07;;;16.70;97.00;;;;;;5043910;28;20178;-92
2021/06/06 00:51:56;;;;;;;13.20;11.90;;;16.70;97.50;;;;;;5042972;28;20216;-92
2021/06/06 00:54:41;;;;;;;14.50;13.10;;;16.70;96.10;;;;;;5025363;28;20186;-92
2021/06/06 00:57:21;;;;;;;14.30;12.90;;;16.60;96.90;;;;;;5032730;28;20204;-91
2021/06/06 00:59:56;;;;;;;15.67;13.20;;;16.70;96.70;;;;;;5022967;28;20663;-91
2021/06/06 01:02:21;;;;;;;15.07;13.47;;;16.60;96.60;;;;;;5006338;28;20204;-90
2021/06/06 01:04:47;;;;;;;13.47;12.13;;;16.60;97.30;;;;;;5026170;28;20189;-90
2021/06/06 01:07:13;;;;;;;14.30;12.80;;;16.70;97.20;;;;;;5015718;28;20634;-90
2021/06/06 01:09:38;;;;;;;14.10;12.70;;;16.70;96.40;;;;;;5041286;28;20203;-90
2021/06/06 01:12:19;;;;;;;14.93;13.53;;;16.70;96.30;;;;;;5023875;28;20210;-90
2021/06/06 01:15:04;;;;;;;13.93;12.63;;;16.60;96.50;;;;;;5040572;28;20181;-90
2021/06/06 01:17:55;;;;;;;15.00;13.53;;;16.60;97.40;;;;;;5040742;28;20188;-92
2021/06/06 01:20:32;;;;;;;15.00;13.50;;;16.50;97.30;;;;;;5040743;28;20390;-91
2021/06/06 01:23:08;;;;;;;14.17;12.77;;;16.60;97.50;;;;;;5040722;28;20199;-91
2021/06/06 01:25:42;;;;;;;15.60;12.47;;;16.60;97.40;;;;;;5040270;28;20184;-91
2021/06/06 01:28:16;;;;;;;14.97;13.47;;;16.60;96.10;;;;;;5042519;28;20235;-91
2021/06/06 01:30:52;;;;;;;15.03;13.53;;;16.60;97.00;;;;;;5040975;28;20176;-91
2021/06/06 01:33:26;;;;;;;14.33;12.93;;;16.60;97.00;;;;;;5049728;28;20159;-91
2021/06/06 01:36:13;;;;;;;16.20;13.30;;;16.60;96.80;;;;;;5040726;28;20558;-90
2021/06/06 01:38:56;;;;;;;15.03;13.17;;;16.70;97.30;;;;;;5038721;28;20171;-91
2021/06/06 01:41:34;;;;;;;14.03;12.63;;;16.70;96.60;;;;;;5022106;28;20311;-91
2021/06/06 01:44:01;;;;;;;14.63;11.87;;;16.60;97.40;;;;;;5040243;28;20185;-93
2021/06/06 01:46:33;;;;;;;15.70;14.10;;;16.60;97.50;;;;;;5021423;28;20173;-92
2021/06/06 01:48:59;;;;;;;14.33;13.03;;;16.60;96.90;;;;;;5022712;28;20232;-91
2021/06/06 01:51:29;;;;;;;14.67;13.07;;;16.50;98.10;;;;;;5038408;28;20683;-91
2021/06/06 01:53:56;;;;;;;15.50;14.00;;;16.40;97.90;;;;;;5038391;28;20171;-92
2021/06/06 01:56:30;;;;;;;15.07;12.83;;;16.40;97.40;;;;;;5031594;28;20182;-91
2021/06/06 01:58:58;;;;;;;15.33;13.73;;;16.40;98.50;;;;;;5018749;28;20175;-92
2021/06/06 02:01:26;;;;;;;16.33;13.97;;;16.40;99.10;;;;;;5017422;28;20562;-92
2021/06/06 02:03:57;;;;;;;14.37;12.90;;;16.40;98.00;;;;;;5018817;28;20173;-92
2021/06/06 02:06:48;;;;;;;15.00;13.20;;;16.50;98.90;;;;;;5005995;28;20231;-92
2021/06/06 02:09:19;;;;;;;13.37;12.07;;;16.50;98.40;;;;;;4993217;28;20664;-91
2021/06/06 02:11:58;;;;;;;15.07;12.97;;;16.50;99.00;;;;;;5021603;28;20231;-92
2021/06/06 02:14:31;;;;;;;17.00;13.00;;;16.60;98.50;;;;;;5021375;28;20176;-92
2021/06/06 02:17:00;;;;;;;15.00;13.40;;;16.60;97.70;;;;;;5027468;28;20181;-93
2021/06/06 02:19:29;;;;;;;14.57;12.97;;;16.60;97.50;;;;;;5001638;28;20302;-91
2021/06/06 02:21:58;;;;;;;13.80;12.30;;;16.50;97.80;;;;;;5020505;28;20207;-92
2021/06/06 02:24:25;;;;;;;14.97;13.47;;;16.40;98.50;;;;;;5022675;28;20244;-91
2021/06/06 02:27:03;;;;;;;15.80;13.77;;;16.50;98.90;;;;;;5018118;28;20245;-93
2021/06/06 02:29:50;;;;;;;15.27;13.67;;;16.40;98.60;;;;;;5025242;28;20177;-92
2021/06/06 02:32:48;;;;;;;15.40;12.80;;;16.40;98.90;;;;;;5018419;28;20206;-91
2021/06/06 02:35:30;;;;;;;16.83;13.10;;;16.40;98.00;;;;;;5017887;28;20252;-94
2021/06/06 02:38:18;;;;;;;15.43;13.83;;;16.40;99.00;;;;;;5018251;28;20239;-91
2021/06/06 02:40:48;;;;;;;15.63;13.93;;;16.40;99.90;;;;;;5017345;28;20193;-90
2021/06/06 02:43:27;;;;;;;16.20;14.67;;;16.40;98.80;;;;;;4998429;28;20182;-91
2021/06/06 02:45:56;;;;;;;16.77;15.07;;;16.50;97.70;;;;;;5016719;28;20260;-91
2021/06/06 02:48:46;;;;;;;16.77;15.07;;;16.50;98.40;;;;;;4998371;28;20221;-92
2021/06/06 02:51:16;;;;;;;18.73;16.40;;;16.60;98.00;;;;;;5014446;28;20228;-91
2021/06/06 02:53:57;;;;;;;19.07;17.10;;;16.50;98.60;;;;;;5016023;28;20230;-91
2021/06/06 02:56:24;;;;;;;19.00;17.10;;;16.50;97.90;;;;;;5015935;28;20166;-91
2021/06/06 02:59:09;;;;;;;18.77;16.17;;;16.50;97.60;;;;;;5016993;28;20189;-91
2021/06/06 03:01:41;;;;;;;18.77;16.87;;;16.50;97.90;;;;;;5035617;28;20568;-91
2021/06/06 03:04:11;;;;;;;17.57;15.87;;;16.40;97.70;;;;;;5036162;28;20177;-91
2021/06/06 03:06:41;;;;;;;17.53;15.70;;;16.40;98.60;;;;;;5018447;28;20573;-91
2021/06/06 03:09:08;;;;;;;17.00;15.37;;;16.50;98.10;;;;;;5032847;28;20266;-91
2021/06/06 03:11:37;;;;;;;15.57;13.97;;;16.30;97.60;;;;;;5016305;28;20209;-92
2021/06/06 03:14:07;;;;;;;15.80;14.30;;;16.30;98.70;;;;;;5014701;28;20199;-91
2021/06/06 03:16:39;;;;;;;17.03;15.30;;;16.20;99.30;;;;;;5016094;28;20166;-91
2021/06/06 03:19:06;;;;;;;19.20;15.40;;;16.10;99.80;;;;;;5002049;28;20188;-91
2021/06/06 03:21:36;;;;;;;16.97;14.87;;;16.10;99.90;;;;;;5002959;28;20209;-92
2021/06/06 03:24:11;;;;;;;15.43;13.33;;;16.00;99.90;;;;;;5003625;28;20278;-91
2021/06/06 03:26:38;;;;;;;15.97;13.93;;;16.00;99.90;;;;;;5002104;28;20187;-92
2021/06/06 03:29:09;;;;;;;15.27;13.70;;;16.00;99.90;;;;;;5035163;28;20268;-92
2021/06/06 03:31:43;;;;;;;15.23;13.63;;;16.00;99.90;;;;;;5039344;28;20203;-91
2021/06/06 03:34:08;;;;;;;15.10;13.57;;;15.80;99.90;;;;;;5022006;28;20172;-92
2021/06/06 03:36:37;;;;;;;15.63;14.07;;;15.90;99.90;;;;;;5038446;28;20194;-91
2021/06/06 03:39:06;;;;;;;14.77;13.03;;;15.90;99.90;;;;;;5039338;28;20254;-91
2021/06/06 03:41:33;;;;;;;14.57;13.07;;;15.90;99.90;;;;;;5021413;28;20217;-91
2021/06/06 03:43:58;;;;;;;14.23;12.87;;;15.80;99.90;;;;;;5021588;28;20184;-91
2021/06/06 03:46:26;;;;;;;14.00;12.60;;;15.80;99.90;;;;;;5021416;28;20174;-91
2021/06/06 03:48:52;;;;;;;13.10;11.80;;;15.80;99.90;;;;;;5038861;28;20264;-92
2021/06/06 03:51:19;;;;;;;14.00;12.50;;;15.80;99.90;;;;;;5020883;28;20765;-91
2021/06/06 03:53:45;;;;;;;13.60;12.23;;;15.90;99.90;;;;;;5037853;28;20255;-91
2021/06/06 03:56:12;;;;;;;12.77;11.20;;;16.00;99.90;;;;;;5038589;28;20186;-91
2021/06/06 03:58:39;;;;;;;12.73;11.43;;;16.10;99.90;;;;;;5020922;28;20594;-91
2021/06/06 04:01:06;;;;;;;13.27;11.97;;;16.10;99.90;;;;;;5021132;28;20205;-91
2021/06/06 04:03:32;;;;;;;13.47;11.03;;;16.00;99.90;;;;;;5021143;28;20177;-91
2021/06/06 04:05:58;;;;;;;12.93;11.63;;;16.10;99.90;;;;;;5020509;28;20194;-92
2021/06/06 04:08:23;;;;;;;12.57;11.37;;;16.10;99.90;;;;;;5038532;28;20210;-91
2021/06/06 04:10:50;;;;;;;12.43;11.33;;;16.10;99.90;;;;;;5021384;28;20237;-91
2021/06/06 04:13:16;;;;;;;14.23;12.77;;;16.00;99.90;;;;;;5039893;28;20273;-92
2021/06/06 04:15:42;;;;;;;12.97;11.77;;;16.00;99.90;;;;;;5021477;28;20189;-91
2021/06/06 04:18:20;;;;;;;13.00;11.67;;;15.90;99.90;;;;;;5023840;28;20186;-91
2021/06/06 04:20:48;;;;;;;12.83;11.53;;;15.90;99.90;;;;;;5021323;28;20648;-91
2021/06/06 04:23:14;;;;;;;11.73;10.57;;;16.00;99.90;;;;;;5021335;28;20185;-91
2021/06/06 04:25:40;;;;;;;13.13;11.80;;;16.10;99.90;;;;;;5027558;28;20181;-91
2021/06/06 04:28:07;;;;;;;13.17;11.87;;;16.10;99.90;;;;;;5003189;28;20205;-91
2021/06/06 04:30:32;;;;;;;11.50;10.43;;;16.20;99.90;;;;;;5001859;28;20256;-91
2021/06/06 04:32:58;;;;;;;12.30;11.10;;;16.00;99.90;;;;;;5004092;28;20228;-90
2021/06/06 04:35:24;;;;;;;13.17;11.87;;;16.00;99.90;;;;;;5038412;28;20181;-91
2021/06/06 04:37:49;;;;;;;12.67;11.50;;;16.20;99.90;;;;;;5040304;28;20177;-91
2021/06/06 04:40:17;;;;;;;12.67;11.47;;;16.10;99.90;;;;;;5037671;28;20653;-93
2021/06/06 04:42:43;;;;;;;12.43;11.10;;;16.10;99.90;;;;;;5039067;28;20301;-91
2021/06/06 04:45:11;;;;;;;13.17;11.87;;;16.10;99.90;;;;;;5039124;28;20186;-91
2021/06/06 04:47:37;;;;;;;11.63;10.53;;;16.10;99.90;;;;;;5039487;28;20211;-91
2021/06/06 04:50:06;;;;;;;11.77;10.67;;;16.10;99.90;;;;;;5023156;28;20189;-92
2021/06/06 04:52:35;;;;;;;12.90;11.60;;;16.10;99.90;;;;;;5022105;28;20733;-92
2021/06/06 04:55:06;;;;;;;12.10;10.80;;;16.00;99.90;;;;;;5022706;28;20198;-92
2021/06/06 04:57:32;;;;;;;12.47;11.20;;;16.20;99.90;;;;;;5040728;28;20166;-91
2021/06/06 04:59:58;;;;;;;11.33;10.23;;;16.20;99.90;;;;;;5022875;28;20240;-91
2021/06/06 05:02:23;;;;;;;13.03;10.90;;;16.20;99.90;;;;;;5022972;28;20209;-92
2021/06/06 05:04:49;;;;;;;11.73;10.63;;;16.20;99.90;;;;;;5040991;28;20181;-92
2021/06/06 05:07:15;;;;;;;11.57;10.40;;;16.20;99.90;;;;;;5022101;28;20578;-92
2021/06/06 05:09:40;;;;;;;11.03;9.93;;;16.10;99.90;;;;;;5023494;28;20655;-91
2021/06/06 05:12:07;;;;;;;11.03;10.00;;;16.10;99.90;;;;;;5039199;28;20207;-91
2021/06/06 05:14:33;;;;;;;10.80;9.80;;;16.10;99.90;;;;;;5022932;28;20275;-92
2021/06/06 05:16:58;;;;;;;11.47;10.37;;;16.20;99.90;;;;;;5026126;28;20274;-91
2021/06/06 05:19:24;;;;;;;11.30;10.30;;;16.20;99.90;;;;;;5003546;28;20192;-91
2021/06/06 05:21:50;;;;;;;10.70;9.80;;;16.10;99.90;;;;;;5004427;28;20202;-92
2021/06/06 05:24:16;;;;;;;11.30;10.20;;;16.10;99.90;;;;;;5019930;28;20196;-92
2021/06/06 05:26:41;;;;;;;10.87;9.73;;;16.10;99.90;;;;;;5021238;28;20247;-92
2021/06/06 05:29:07;;;;;;;10.37;9.23;;;16.10;99.90;;;;;;5002502;28;20181;-92
2021/06/06 05:31:33;;;;;;;10.17;9.27;;;16.20;99.90;;;;;;5020071;28;20262;-91
2021/06/06 05:33:59;;;;;;;11.33;10.27;;;16.10;99.90;;;;;;5003757;28;20188;-92
2021/06/06 05:36:24;;;;;;;9.70;8.77;;;16.20;99.90;;;;;;5002935;28;20181;-92
2021/06/06 05:38:50;;;;;;;10.30;9.23;;;16.20;99.90;;;;;;5017921;28;20247;-92
2021/06/06 05:41:16;;;;;;;9.53;8.60;;;16.10;99.90;;;;;;5019419;28;20221;-91
2021/06/06 05:43:41;;;;;;;10.50;9.50;;;16.20;99.90;;;;;;5028325;28;20276;-91
2021/06/06 05:46:11;;;;;;;9.90;9.00;;;16.20;99.90;;;;;;5039199;28;20188;-91
2021/06/06 05:48:36;;;;;;;9.83;8.93;;;16.20;99.90;;;;;;5039562;28;20204;-92
2021/06/06 05:51:04;;;;;;;9.93;9.13;;;16.20;99.90;;;;;;5040370;28;20203;-92
2021/06/06 05:53:30;;;;;;;10.20;9.17;;;16.30;99.90;;;;;;5039918;28;20185;-92
2021/06/06 05:55:56;;;;;;;9.90;9.00;;;16.30;99.90;;;;;;5033053;28;20244;-91
2021/06/06 05:58:22;;;;;;;9.00;7.93;;;16.20;99.90;;;;;;5003283;28;20194;-91
2021/06/06 06:00:49;;;;;;;9.67;8.87;;;16.20;99.90;;;;;;5001621;28;20192;-92
2021/06/06 06:03:16;;;;;;;9.60;8.80;;;16.30;99.90;;;;;;5019228;28;20184;-91
2021/06/06 06:05:43;;;;;;;9.20;8.30;;;16.30;99.90;;;;;;5002948;28;20216;-90
2021/06/06 06:08:18;;;;;;;8.60;7.83;;;16.30;99.90;;;;;;5019878;28;20200;-91
2021/06/06 06:10:47;;;;;;;9.37;8.47;;;16.20;99.90;;;;;;5016895;28;20183;-94
2021/06/06 06:13:15;;;;;;;8.33;7.63;;;16.30;99.90;;;;;;5021239;28;20263;-93
2021/06/06 06:15:41;;;;;;;8.67;7.87;;;16.40;99.90;;;;;;5039476;28;20196;-92
2021/06/06 06:18:07;;;;;;;9.10;8.17;;;16.30;99.90;;;;;;5039653;28;20189;-92
2021/06/06 06:20:33;;;;;;;8.43;7.73;;;16.30;99.90;;;;;;5019563;28;20295;-93
2021/06/06 06:22:59;;;;;;;8.43;7.73;;;16.30;99.90;;;;;;5038473;28;20205;-92
2021/06/06 06:25:24;;;;;;;8.87;8.07;;;16.30;99.90;;;;;;5019871;28;20177;-92
2021/06/06 06:27:50;;;;;;;8.43;7.63;;;16.40;99.90;;;;;;5021445;28;20213;-92
2021/06/06 06:30:20;;;;;;;7.77;7.03;;;16.30;99.90;;;;;;5023280;28;20190;-93
2021/06/06 06:32:46;;;;;;;8.10;7.40;;;16.40;99.90;;;;;;5039630;28;20205;-93
2021/06/06 06:35:12;;;;;;;8.00;7.30;;;16.40;99.90;;;;;;5025730;28;20555;-92
2021/06/06 06:37:38;;;;;;;8.00;7.30;;;16.30;99.90;;;;;;5043049;28;20169;-93
2021/06/06 06:40:07;;;;;;;8.13;7.33;;;16.40;99.90;;;;;;5039491;28;20184;-93
2021/06/06 06:42:33;;;;;;;7.40;6.70;;;16.40;99.90;;;;;;5023864;28;20287;-92
2021/06/06 06:44:59;;;;;;;7.97;7.27;;;16.40;99.90;;;;;;5025493;28;20188;-92
2021/06/06 06:47:24;;;;;;;7.47;6.77;;;16.40;99.90;;;;;;5041482;28;20824;-93
2021/06/06 06:49:51;;;;;;;8.57;7.77;;;16.50;99.90;;;;;;5019880;28;20185;-93
2021/06/06 06:52:17;;;;;;;7.67;6.90;;;16.50;99.90;;;;;;5035738;28;20714;-93
2021/06/06 06:54:43;;;;;;;7.50;6.80;;;16.40;99.90;;;;;;5039773;28;20248;-92
2021/06/06 06:57:09;;;;;;;7.00;6.40;;;16.50;99.90;;;;;;5039960;28;20782;-91
2021/06/06 06:59:34;;;;;;;7.17;6.57;;;16.50;99.90;;;;;;5008315;28;20189;-93
2021/06/06 07:02:03;;;;;;;7.33;6.73;;;16.50;99.90;;;;;;5022792;28;20239;-92
2021/06/06 07:04:29;;;;;;;7.37;6.70;;;16.50;99.90;;;;;;5040607;28;20177;-92
2021/06/06 07:06:55;;;;;;;7.30;6.60;;;16.30;99.90;;;;;;5039479;28;20242;-92
2021/06/06 07:09:23;;;;;;;6.93;6.33;;;16.50;99.90;;;;;;5039314;28;20223;-92
2021/06/06 07:11:48;;;;;;;6.90;6.30;;;16.60;99.90;;;;;;5039903;28;20272;-92
2021/06/06 07:14:14;;;;;;;6.30;5.70;;;16.60;99.90;;;;;;5038888;28;20588;-92
2021/06/06 07:16:40;;;;;;;6.03;5.53;;;16.70;99.90;;;;;;5022109;28;20189;-92
2021/06/06 07:19:07;;;;;;;5.67;5.17;;;16.70;99.90;;;;;;5022314;28;20319;-92
2021/06/06 07:21:34;;;;;;;5.57;5.10;;;16.80;98.70;;;;;;5022274;28;20202;-92
2021/06/06 07:23:59;;;;;;;6.30;5.70;;;16.90;98.50;;;;;;5038682;28;20571;-92
2021/06/06 07:26:33;;;;;;;5.10;4.67;;;16.80;98.40;;;;;;5038419;28;20183;-92
2021/06/06 07:29:01;;;;;;;6.47;5.97;;;17.00;98.60;;;;;;5040339;28;20219;-92
2021/06/06 07:31:28;;;;;;;5.97;5.50;;;17.10;98.40;;;;;;5039727;28;20262;-92
2021/06/06 07:33:54;;;;;;;5.67;5.17;;;17.20;97.90;;;;;;5037946;28;20201;-91
2021/06/06 07:36:20;;;;;;;6.13;5.63;;;17.10;97.90;;;;;;5038257;28;20672;-92
2021/06/06 07:38:48;;;;;;;7.00;6.13;;;17.00;99.00;;;;;;5039525;28;20278;-93
2021/06/06 07:41:15;;;;;;;5.80;5.30;;;16.90;99.60;;;;;;5037858;28;20213;-92
2021/06/06 07:43:41;;;;;;;7.20;6.60;;;16.90;99.60;;;;;;5039817;28;20238;-92
2021/06/06 07:46:07;;;;;;;5.03;4.63;;;16.80;99.70;;;;;;5038252;28;20177;-92
2021/06/06 07:48:33;;;;;;;5.57;5.15;;;16.90;99.20;;;;;;5040903;28;20206;-93
2021/06/06 07:50:59;;;;;;;5.53;5.13;;;17.00;98.90;;;;;;5044780;28;20184;-92
2021/06/06 07:53:25;;;;;;;4.95;4.55;;;17.00;99.10;;;;;;5022283;28;20202;-93
2021/06/06 07:55:53;;;;;;;5.20;4.80;;;17.10;98.00;;;;;;5022483;28;20866;-93
2021/06/06 07:58:25;;;;;;;5.20;4.50;;;17.20;98.20;;;;;;5042119;28;20195;-92
2021/06/06 08:00:51;;;;;;;5.10;4.70;;;17.20;98.00;;;;;;5039627;28;20179;-93
2021/06/06 08:03:17;;;;;;;5.80;5.40;;;17.30;98.10;;;;;;5023341;28;20200;-90
2021/06/06 08:05:43;;;;;;;5.40;4.93;;;17.30;98.00;;;;;;5039677;28;20182;-93
2021/06/06 08:08:11;;;;;;;5.40;5.00;;;17.20;97.60;;;;;;5037274;28;20265;-93
2021/06/06 08:10:40;;;;;;;5.25;4.85;;;17.00;99.30;;;;;;5036166;28;20240;-92
2021/06/06 08:13:06;;;;;;;4.85;4.55;;;17.10;99.10;;;;;;5036134;28;20179;-93
2021/06/06 08:15:32;;;;;;;5.40;5.00;;;17.00;98.90;;;;;;5040268;28;20272;-92
2021/06/06 08:18:02;;;;;;;5.38;4.97;;;17.00;99.20;;;;;;5039018;28;20220;-92
2021/06/06 08:20:32;;;;;;;5.50;5.05;;;17.10;99.40;;;;;;5038026;28;20613;-93
2021/06/06 08:22:58;;;;;;;4.97;4.57;;;17.10;98.40;;;;;;5039364;28;20722;-92
2021/06/06 08:25:25;;;;;;;5.32;4.93;;;17.10;99.00;;;;;;5020539;28;20560;-93
2021/06/06 08:27:52;;;;;;;5.10;4.70;;;17.20;98.80;;;;;;5039410;28;20206;-93
2021/06/06 08:30:20;;;;;;;5.10;4.70;;;17.20;98.40;;;;;;5057675;28;20212;-91
2021/06/06 08:32:46;;;;;;;5.50;4.97;;;17.20;98.00;;;;;;5041861;28;20263;-92
2021/06/06 08:35:12;;;;;;;5.63;5.13;;;17.20;99.30;;;;;;5032796;28;20234;-92
2021/06/06 08:37:38;;;;;;;5.45;5.05;;;17.20;99.30;;;;;;5013948;28;20188;-92
2021/06/06 08:40:10;;;;;;;5.18;4.78;;;17.10;99.90;;;;;;5031952;28;20245;-92
2021/06/06 08:42:41;;;;;;;4.93;4.47;;;17.30;98.50;;;;;;5033723;28;20228;-93
2021/06/06 08:45:34;;;;;;;5.10;4.70;;;17.30;98.10;;;;;;5035011;28;20180;-89
2021/06/06 08:48:04;;;;;;;4.85;4.45;;;17.40;98.10;;;;;;5033634;28;20234;-91
2021/06/06 08:50:42;;;;;;;5.35;4.95;;;17.50;98.10;;;;;;5033536;28;20338;-91
2021/06/06 08:53:30;;;;;;;5.10;4.60;;;17.60;96.90;;;;;;5035457;28;20184;-91
2021/06/06 08:56:20;;;;;;;5.00;4.60;;;17.70;96.30;;;;;;5035807;28;20624;-91
2021/06/06 08:58:57;;;;;;;4.45;4.13;;;17.80;96.00;;;;;;5018406;28;20647;-91
2021/06/06 09:01:53;;;;;;;5.85;5.20;;;17.90;95.60;;;;;;5034168;28;20296;-90
2021/06/06 09:04:29;;;;;;;5.38;4.95;;;17.60;97.20;;;;;;5032953;28;20183;-90
2021/06/06 09:07:02;;;;;;;4.60;4.20;;;17.40;98.70;;;;;;5036680;28;20183;-91
2021/06/06 09:09:31;;;;;;;4.47;4.10;;;17.50;97.20;;;;;;5035762;28;20177;-90
2021/06/06 09:12:03;;;;;;;5.22;4.82;;;17.70;96.50;;;;;;5037230;28;20205;-91
2021/06/06 09:14:29;;;;;;;4.72;4.32;;;17.80;95.90;;;;;;5037102;28;20651;-90
2021/06/06 09:17:03;;;;;;;6.15;5.65;;;17.80;95.80;;;;;;5036814;28;20169;-92
2021/06/06 09:19:45;;;;;;;7.07;6.40;;;18.10;95.60;;;;;;5034336;28;20635;-92
2021/06/06 09:22:13;;;;;;;9.77;8.88;;;18.20;96.20;;;;;;5032273;28;20595;-92
2021/06/06 09:24:44;;;;;;;10.23;9.32;;;18.40;94.90;;;;;;5031238;28;20727;-91
2021/06/06 09:27:21;;;;;;;9.45;8.65;;;18.50;93.90;;;;;;5030349;28;20209;-92
2021/06/06 09:30:00;;;;;;;10.75;9.80;;;18.60;94.20;;;;;;5032064;28;20226;-93
2021/06/06 09:32:26;;;;;;;11.90;10.88;;;18.80;93.40;;;;;;5030301;28;20207;-93
2021/06/06 09:35:16;;;;;;;13.73;12.52;;;18.70;93.70;;;;;;5018505;28;20235;-91
2021/06/06 09:37:50;;;;;;;12.75;11.65;;;18.70;91.30;;;;;;5018790;28;20181;-92
2021/06/06 09:40:33;;;;;;;14.30;12.98;;;18.60;92.40;;;;;;5020207;28;20177;-92
2021/06/06 09:42:59;;;;;;;15.70;14.30;;;18.40;92.40;;;;;;5037143;28;20277;-92
2021/06/06 09:45:37;;;;;;;16.98;15.48;;;18.20;94.90;;;;;;5015854;28;20259;-93
2021/06/06 09:48:15;;;;;;;15.20;13.90;;;18.20;94.90;;;;;;5022258;28;20193;-92
2021/06/06 09:50:44;;;;;;;11.20;10.30;;;18.30;93.00;;;;;;4997339;28;20173;-93
2021/06/06 09:53:23;;;;;;;9.65;8.82;;;18.40;92.90;;;;;;5020795;28;20273;-92
2021/06/06 09:55:50;;;;;;;10.25;9.45;;;18.40;93.00;;;;;;5019567;28;20166;-92
2021/06/06 09:58:33;;;;;;;9.85;9.05;;;18.40;94.50;;;;;;5018300;28;20185;-92
2021/06/06 10:01:20;;;;;;;10.75;9.85;;;18.60;93.70;;;;;;5002801;28;20177;-91
2021/06/06 10:04:16;;;;;;;11.68;10.68;;;18.60;93.20;;;;;;5003530;28;20223;-93
2021/06/06 10:06:44;;;;;;;11.40;10.40;;;18.60;91.80;;;;;;5021353;28;20253;-92
2021/06/06 10:09:25;;;;;;;15.15;13.65;;;18.60;92.70;;;;;;5021035;28;20192;-91
2021/06/06 10:11:54;;;;;;;13.90;12.60;;;18.30;92.60;;;;;;5018561;28;20208;-92
2021/06/06 10:14:27;;;;;;;11.35;10.35;;;18.40;93.70;;;;;;5023712;28;20226;-91
2021/06/06 10:16:55;;;;;;;15.45;14.15;;;18.50;93.40;;;;;;5020070;28;20183;-91
2021/06/06 10:20:01;;;;;;;14.30;12.98;;;18.60;92.90;;;;;;5021068;28;20196;-91
2021/06/06 10:22:36;;;;;;;15.07;13.40;;;18.70;91.00;;;;;;5008545;28;20205;-93
2021/06/06 10:25:10;;;;;;;14.05;12.85;;;18.70;92.70;;;;;;5020695;28;20192;-92
2021/06/06 10:27:41;;;;;;;13.55;12.25;;;18.80;92.90;;;;;;5002317;28;20201;-92
2021/06/06 10:30:21;;;;;;;12.85;11.73;;;18.70;92.80;;;;;;5031256;28;20188;-92
2021/06/06 10:32:47;;;;;;;14.52;13.23;;;18.70;93.60;;;;;;5023145;28;20205;-93
2021/06/06 10:35:15;;;;;;;13.93;12.73;;;18.80;91.70;;;;;;5022613;28;20176;-92
2021/06/06 10:37:46;;;;;;;14.77;13.48;;;18.70;92.00;;;;;;5015703;28;20271;-92
2021/06/06 10:40:27;;;;;;;12.00;10.90;;;18.70;92.70;;;;;;5031166;28;20185;-92
2021/06/06 10:42:59;;;;;;;9.38;8.60;;;18.70;92.70;;;;;;5013413;28;20227;-92
2021/06/06 10:45:48;;;;;;;11.77;10.77;;;18.70;92.00;;;;;;5039143;28;20188;-91
2021/06/06 10:48:17;;;;;;;12.27;11.05;;;18.40;93.10;;;;;;5019543;28;20209;-91
2021/06/06 10:50:46;;;;;;;11.68;10.68;;;18.40;93.00;;;;;;5003793;28;20178;-91
2021/06/06 10:53:18;;;;;;;12.32;11.25;;;18.40;92.40;;;;;;5002153;28;20182;-90
2021/06/06 10:56:01;;;;;;;11.23;10.23;;;18.40;93.00;;;;;;4996651;28;20178;-91
2021/06/06 10:58:36;;;;;;;13.25;12.05;;;18.30;94.60;;;;;;5013676;28;20178;-91
2021/06/06 11:01:19;;;;;;;13.98;12.80;;;18.30;93.00;;;;;;5005831;28;20214;-91
2021/06/06 11:03:51;;;;;;;13.30;12.15;;;18.20;93.60;;;;;;5036071;28;20165;-91
2021/06/06 11:06:37;;;;;;;12.75;11.75;;;18.30;95.60;;;;;;5029167;28;20193;-91
2021/06/06 11:09:05;;;;;;;14.30;12.98;;;18.50;95.40;;;;;;5019093;28;20194;-91
2021/06/06 11:11:40;;;;;;;13.95;12.70;;;18.70;95.50;;;;;;5018207;28;20193;-92
2021/06/06 11:14:12;;;;;;;14.00;12.65;;;18.80;94.20;;;;;;5006310;28;20213;-90
2021/06/06 11:16:46;;;;;;;15.07;13.75;;;18.80;94.20;;;;;;5018175;28;20268;-90
2021/06/06 11:19:18;;;;;;;15.30;14.00;;;18.80;93.10;;;;;;5007637;28;20187;-89
2021/06/06 11:21:44;;;;;;;17.10;15.50;;;18.70;94.20;;;;;;5010058;28;20209;-90
2021/06/06 11:24:43;;;;;;;16.55;14.90;;;18.80;94.30;;;;;;5017131;28;20308;-90
2021/06/06 11:27:16;;;;;;;18.90;16.85;;;18.80;92.00;;;;;;5021794;28;20215;-90
2021/06/06 11:29:53;;;;;;;17.20;15.60;;;18.80;93.90;;;;;;5018533;28;20263;-90
2021/06/06 11:32:23;;;;;;;16.35;14.88;;;18.90;93.90;;;;;;5017680;28;20277;-90
2021/06/06 11:35:10;;;;;;;16.65;15.15;;;18.90;92.60;;;;;;5017726;28;20166;-90
2021/06/06 11:37:45;;;;;;;30.23;27.42;;;19.00;92.80;;;;;;5017102;28;20182;-91
2021/06/06 11:40:49;;;;;;;25.85;23.35;;;18.90;92.40;;;;;;5024022;28;20186;-90
2021/06/06 11:43:35;;;;;;;19.13;17.45;;;19.00;92.60;;;;;;5026062;28;20628;-90
2021/06/06 11:46:33;;;;;;;21.58;19.48;;;19.00;93.40;;;;;;5026806;28;20221;-90
2021/06/06 11:49:14;;;;;;;21.42;19.42;;;18.90;94.00;;;;;;5024224;28;20218;-91
2021/06/06 11:51:45;;;;;;;24.23;21.88;;;18.80;95.00;;;;;;5029914;28;20235;-91
2021/06/06 11:54:34;;;;;;;29.73;26.80;;;18.90;95.00;;;;;;5029697;28;20178;-90
2021/06/06 11:57:08;;;;;;;27.42;24.67;;;19.00;91.90;;;;;;5039669;28;20213;-90
2021/06/06 12:00:06;;;;;;;29.23;26.42;;;19.00;93.10;;;;;;5021035;28;20544;-91
2021/06/06 12:02:34;;;;;;;25.08;22.55;;;19.10;92.90;;;;;;5021803;28;20188;-91
2021/06/06 12:05:25;;;;;;;25.23;22.65;;;19.10;92.70;;;;;;5019094;28;20208;-91
2021/06/06 12:07:52;;;;;;;25.73;23.42;;;19.10;92.90;;;;;;5002451;28;20802;-90
2021/06/06 12:10:27;;;;;;;25.05;22.67;;;19.10;93.10;;;;;;5020860;28;20201;-91
2021/06/06 12:12:57;;;;;;;22.20;20.27;;;19.20;92.70;;;;;;5014017;28;20246;-91
2021/06/06 12:15:38;;;;;;;23.08;20.98;;;19.20;92.70;;;;;;5008567;28;20180;-91
2021/06/06 12:18:24;;;;;;;23.98;21.67;;;19.40;92.80;;;;;;5032931;28;20652;-91
2021/06/06 12:20:54;;;;;;;24.27;21.98;;;19.80;90.90;;;;;;5033416;28;20185;-90
2021/06/06 12:23:28;;;;;;;24.13;21.92;;;20.20;87.50;;;;;;5020514;28;20170;-90
2021/06/06 12:26:16;;;;;;;24.48;22.17;;;20.40;87.40;;;;;;5030630;28;20172;-90
2021/06/06 12:28:48;;;;;;;23.92;21.75;;;20.40;87.90;;;;;;5035179;28;20829;-90
2021/06/06 12:31:52;;;;;;;25.75;23.15;;;20.40;87.70;;;;;;5027695;28;20265;-90
2021/06/06 12:34:23;;;;;;;27.45;24.85;;;20.70;84.30;;;;;;5038732;28;20196;-90
2021/06/06 12:36:53;;;;;;;24.75;22.55;;;21.00;83.40;;;;;;5034427;28;20191;-90
2021/06/06 12:39:21;;;;;;;25.30;22.85;;;21.30;82.50;;;;;;5036481;28;20518;-89
2021/06/06 12:41:52;;;;;;;24.25;22.08;;;21.20;83.70;;;;;;5011007;28;20220;-90
2021/06/06 12:44:21;;;;;;;24.50;22.00;;;21.50;84.00;;;;;;5019839;28;20196;-90
2021/06/06 12:46:57;;;;;;;24.98;22.58;;;21.50;83.30;;;;;;5031398;28;20250;-90
2021/06/06 12:49:56;;;;;;;27.73;25.02;;;21.60;82.80;;;;;;5012052;28;20197;-90
2021/06/06 12:52:22;;;;;;;27.40;24.80;;;21.80;80.70;;;;;;5007598;28;20224;-90
2021/06/06 12:54:48;;;;;;;24.85;22.52;;;21.80;80.90;;;;;;5026358;28;20177;-90